SBI525 URMM-URSS
Flight info
| Callsign | SBI525 |
|---|---|
| Flight time | 0h 42m |
| Altitude | 28000 |
| Route | ABELA5L ABELA B967 ERSAR G487 BINOL BINOL1K |
| Aircraft | B738/M-SDE2E3FGHIRWXY/LB1 |
Departure
| Time | 2026-04-26 07:45 |
|---|---|
| Airport | Mineralnye Vody Airport (URMM) |
Arrival
| Time | 2026-04-26 08:27 |
|---|---|
| Airport | Sochi International Airport (URSS) |
| Time | Latitude | Longitude | Altitude | Speed | Heading |
|---|---|---|---|---|---|
| 2026-04-26 07:18 | 44.21817 | 43.08904 | 1056 ft | 0 kts | 212° |
| 2026-04-26 07:33 | 44.21821 | 43.08907 | 1057 ft | 2 kts | 212° |
| 2026-04-26 07:33 | 44.21833 | 43.08918 | 1057 ft | 2 kts | 212° |
| 2026-04-26 07:33 | 44.21846 | 43.08929 | 1057 ft | 2 kts | 212° |
| 2026-04-26 07:33 | 44.21859 | 43.08940 | 1057 ft | 2 kts | 221° |
| 2026-04-26 07:34 | 44.21867 | 43.08958 | 1057 ft | 2 kts | 260° |
| 2026-04-26 07:34 | 44.21866 | 43.08979 | 1057 ft | 2 kts | 293° |
| 2026-04-26 07:34 | 44.21858 | 43.08996 | 1057 ft | 2 kts | 305° |
| 2026-04-26 07:34 | 44.21850 | 43.09014 | 1057 ft | 2 kts | 301° |
| 2026-04-26 07:35 | 44.21843 | 43.09029 | 1057 ft | 0 kts | 302° |
| 2026-04-26 07:37 | 44.21851 | 43.09013 | 1057 ft | 5 kts | 302° |
| 2026-04-26 07:37 | 44.21885 | 43.08937 | 1057 ft | 13 kts | 302° |
| 2026-04-26 07:37 | 44.21948 | 43.08799 | 1057 ft | 17 kts | 302° |
| 2026-04-26 07:38 | 44.22003 | 43.08659 | 1056 ft | 16 kts | 287° |
| 2026-04-26 07:38 | 44.22047 | 43.08524 | 1057 ft | 14 kts | 302° |
| 2026-04-26 07:38 | 44.22099 | 43.08408 | 1056 ft | 13 kts | 302° |
| 2026-04-26 07:38 | 44.22148 | 43.08301 | 1056 ft | 13 kts | 303° |
| 2026-04-26 07:39 | 44.22210 | 43.08167 | 1057 ft | 19 kts | 302° |
| 2026-04-26 07:39 | 44.22288 | 43.07990 | 1056 ft | 22 kts | 302° |
| 2026-04-26 07:39 | 44.22368 | 43.07814 | 1056 ft | 20 kts | 302° |
| 2026-04-26 07:39 | 44.22443 | 43.07646 | 1056 ft | 20 kts | 302° |
| 2026-04-26 07:40 | 44.22530 | 43.07454 | 1056 ft | 24 kts | 302° |
| 2026-04-26 07:40 | 44.22613 | 43.07269 | 1056 ft | 15 kts | 302° |
| 2026-04-26 07:40 | 44.22678 | 43.07159 | 1056 ft | 14 kts | 334° |
| 2026-04-26 07:40 | 44.22786 | 43.07116 | 1056 ft | 18 kts | 346° |
| 2026-04-26 07:41 | 44.22914 | 43.07074 | 1056 ft | 18 kts | 347° |
| 2026-04-26 07:41 | 44.23004 | 43.07053 | 1056 ft | 4 kts | 35° |
| 2026-04-26 07:41 | 44.23022 | 43.07130 | 1056 ft | 13 kts | 87° |
| 2026-04-26 07:41 | 44.23018 | 43.07285 | 1056 ft | 16 kts | 94° |
| 2026-04-26 07:42 | 44.23024 | 43.07435 | 1056 ft | 13 kts | 45° |
| 2026-04-26 07:42 | 44.23099 | 43.07365 | 1056 ft | 18 kts | 303° |
| 2026-04-26 07:42 | 44.23187 | 43.07174 | 1056 ft | 28 kts | 302° |
| 2026-04-26 07:42 | 44.23309 | 43.06905 | 1056 ft | 36 kts | 302° |
| 2026-04-26 07:43 | 44.23445 | 43.06609 | 1056 ft | 35 kts | 302° |
| 2026-04-26 07:43 | 44.23550 | 43.06378 | 1056 ft | 17 kts | 302° |
| 2026-04-26 07:43 | 44.23574 | 43.06280 | 1056 ft | 7 kts | 261° |
| 2026-04-26 07:43 | 44.23596 | 43.06259 | 1056 ft | 5 kts | 49° |
| 2026-04-26 07:44 | 44.23595 | 43.06294 | 1056 ft | 0 kts | 123° |
| 2026-04-26 07:44 | 44.23589 | 43.06307 | 1056 ft | 15 kts | 123° |
| 2026-04-26 07:44 | 44.23394 | 43.06726 | 1056 ft | 84 kts | 122° |
| 2026-04-26 07:44 | 44.22971 | 43.07654 | 1057 ft | 141 kts | 122° |
| 2026-04-26 07:45 | 44.22366 | 43.08986 | 1130 ft | 177 kts | 122° |
| 2026-04-26 07:45 | 44.21723 | 43.10402 | 1830 ft | 175 kts | 121° |
| 2026-04-26 07:45 | 44.21097 | 43.11814 | 2425 ft | 174 kts | 122° |
| 2026-04-26 07:45 | 44.20443 | 43.13270 | 2909 ft | 179 kts | 122° |
| 2026-04-26 07:46 | 44.19796 | 43.14682 | 3541 ft | 173 kts | 121° |
| 2026-04-26 07:46 | 44.19504 | 43.16333 | 3933 ft | 184 kts | 83° |
| 2026-04-26 07:46 | 44.20024 | 43.17957 | 4377 ft | 193 kts | 58° |
| 2026-04-26 07:46 | 44.21081 | 43.19306 | 4550 ft | 221 kts | 25° |
| 2026-04-26 07:47 | 44.22649 | 43.19521 | 4855 ft | 243 kts | 347° |
| 2026-04-26 07:47 | 44.24125 | 43.18267 | 5224 ft | 258 kts | 308° |
| 2026-04-26 07:47 | 44.24872 | 43.15982 | 5555 ft | 272 kts | 276° |
| 2026-04-26 07:47 | 44.24789 | 43.13345 | 6068 ft | 278 kts | 259° |
| 2026-04-26 07:48 | 44.24412 | 43.10710 | 6769 ft | 279 kts | 257° |
| 2026-04-26 07:48 | 44.24044 | 43.08080 | 7556 ft | 278 kts | 258° |
| 2026-04-26 07:48 | 44.23736 | 43.05466 | 8363 ft | 276 kts | 260° |
| 2026-04-26 07:48 | 44.23463 | 43.02841 | 9111 ft | 277 kts | 261° |
| 2026-04-26 07:49 | 44.23202 | 43.00193 | 9881 ft | 277 kts | 261° |
| 2026-04-26 07:49 | 44.22943 | 42.97548 | 10534 ft | 282 kts | 261° |
| 2026-04-26 07:49 | 44.22667 | 42.94764 | 10988 ft | 295 kts | 261° |
| 2026-04-26 07:50 | 44.22077 | 42.88880 | 11825 ft | 323 kts | 261° |
| 2026-04-26 07:50 | 44.21764 | 42.85765 | 12551 ft | 326 kts | 261° |
| 2026-04-26 07:50 | 44.21451 | 42.82659 | 13374 ft | 326 kts | 261° |
| 2026-04-26 07:50 | 44.21137 | 42.79555 | 14111 ft | 330 kts | 262° |
| 2026-04-26 07:51 | 44.20818 | 42.76408 | 14895 ft | 332 kts | 261° |
| 2026-04-26 07:51 | 44.20491 | 42.73206 | 15616 ft | 336 kts | 262° |
| 2026-04-26 07:51 | 44.20162 | 42.69983 | 16383 ft | 338 kts | 262° |
| 2026-04-26 07:51 | 44.19830 | 42.66737 | 17051 ft | 343 kts | 262° |
| 2026-04-26 07:52 | 44.19497 | 42.63490 | 17757 ft | 345 kts | 262° |
| 2026-04-26 07:52 | 44.19153 | 42.60152 | 18452 ft | 348 kts | 262° |
| 2026-04-26 07:52 | 44.18870 | 42.56827 | 19158 ft | 350 kts | 264° |
| 2026-04-26 07:52 | 44.18656 | 42.53457 | 19747 ft | 355 kts | 265° |
| 2026-04-26 07:53 | 44.18465 | 42.50010 | 20391 ft | 358 kts | 265° |
| 2026-04-26 07:53 | 44.18273 | 42.46537 | 21032 ft | 361 kts | 265° |
| 2026-04-26 07:53 | 44.18075 | 42.43066 | 21587 ft | 364 kts | 265° |
| 2026-04-26 07:53 | 44.17867 | 42.39533 | 22179 ft | 367 kts | 265° |
| 2026-04-26 07:54 | 44.17656 | 42.36023 | 22766 ft | 370 kts | 265° |
| 2026-04-26 07:54 | 44.17435 | 42.32437 | 23286 ft | 374 kts | 264° |
| 2026-04-26 07:54 | 44.17210 | 42.28832 | 23849 ft | 377 kts | 264° |
| 2026-04-26 07:54 | 44.16978 | 42.25155 | 24399 ft | 380 kts | 264° |
| 2026-04-26 07:55 | 44.16745 | 42.21486 | 24890 ft | 384 kts | 264° |
| 2026-04-26 07:55 | 44.16511 | 42.17811 | 25376 ft | 388 kts | 264° |
| 2026-04-26 07:55 | 44.16270 | 42.14059 | 26016 ft | 387 kts | 264° |
| 2026-04-26 07:55 | 44.16032 | 42.10369 | 26747 ft | 384 kts | 264° |
| 2026-04-26 07:56 | 44.15788 | 42.06628 | 27115 ft | 389 kts | 264° |
| 2026-04-26 07:56 | 44.15543 | 42.02893 | 27379 ft | 390 kts | 264° |
| 2026-04-26 07:56 | 44.15297 | 41.99137 | 27648 ft | 385 kts | 264° |
| 2026-04-26 07:56 | 44.15051 | 41.95417 | 27919 ft | 383 kts | 264° |
| 2026-04-26 07:57 | 44.14556 | 41.87989 | 28025 ft | 384 kts | 264° |
| 2026-04-26 07:57 | 44.14061 | 41.80605 | 28026 ft | 379 kts | 264° |
| 2026-04-26 07:58 | 44.13567 | 41.73310 | 28023 ft | 381 kts | 264° |
| 2026-04-26 07:58 | 44.13062 | 41.65963 | 28021 ft | 381 kts | 264° |
| 2026-04-26 07:59 | 44.12554 | 41.58609 | 28018 ft | 382 kts | 264° |
| 2026-04-26 07:59 | 44.11984 | 41.51283 | 28019 ft | 382 kts | 262° |
| 2026-04-26 08:00 | 44.10680 | 41.44163 | 28017 ft | 383 kts | 251° |
| 2026-04-26 08:00 | 44.08673 | 41.37284 | 28015 ft | 382 kts | 248° |
| 2026-04-26 08:01 | 44.06581 | 41.30590 | 28018 ft | 383 kts | 247° |
| 2026-04-26 08:01 | 44.04475 | 41.23816 | 28028 ft | 384 kts | 248° |
| 2026-04-26 08:02 | 44.02373 | 41.17001 | 28025 ft | 383 kts | 248° |
| 2026-04-26 08:02 | 44.00277 | 41.10190 | 28028 ft | 384 kts | 248° |
| 2026-04-26 08:03 | 43.98185 | 41.03401 | 28029 ft | 385 kts | 248° |
| 2026-04-26 08:03 | 43.96071 | 40.96564 | 28030 ft | 384 kts | 248° |
| 2026-04-26 08:04 | 43.93970 | 40.89785 | 28038 ft | 385 kts | 248° |
| 2026-04-26 08:04 | 43.91849 | 40.82955 | 28037 ft | 384 kts | 248° |
| 2026-04-26 08:05 | 43.89735 | 40.76165 | 28033 ft | 384 kts | 248° |
| 2026-04-26 08:05 | 43.87614 | 40.69377 | 28031 ft | 380 kts | 248° |
| 2026-04-26 08:06 | 43.86571 | 40.66078 | 28033 ft | 369 kts | 247° |
| 2026-04-26 08:06 | 43.85560 | 40.62908 | 27940 ft | 358 kts | 247° |
| 2026-04-26 08:06 | 43.84569 | 40.59806 | 27619 ft | 351 kts | 247° |
| 2026-04-26 08:06 | 43.83582 | 40.56719 | 27190 ft | 348 kts | 248° |
| 2026-04-26 08:07 | 43.82610 | 40.53675 | 26715 ft | 345 kts | 248° |
| 2026-04-26 08:07 | 43.81646 | 40.50656 | 26234 ft | 343 kts | 247° |
| 2026-04-26 08:07 | 43.80690 | 40.47674 | 25768 ft | 341 kts | 248° |
| 2026-04-26 08:07 | 43.79726 | 40.44669 | 25289 ft | 339 kts | 247° |
| 2026-04-26 08:08 | 43.78783 | 40.41734 | 24827 ft | 336 kts | 247° |
| 2026-04-26 08:08 | 43.77834 | 40.38776 | 24357 ft | 334 kts | 248° |
| 2026-04-26 08:08 | 43.76905 | 40.35891 | 23904 ft | 331 kts | 248° |
| 2026-04-26 08:08 | 43.75964 | 40.32971 | 23453 ft | 329 kts | 247° |
| 2026-04-26 08:09 | 43.75044 | 40.30117 | 23004 ft | 327 kts | 247° |
| 2026-04-26 08:09 | 43.74128 | 40.27277 | 22553 ft | 325 kts | 246° |
| 2026-04-26 08:09 | 43.73206 | 40.24421 | 22101 ft | 323 kts | 246° |
| 2026-04-26 08:09 | 43.72304 | 40.21631 | 21663 ft | 321 kts | 246° |
| 2026-04-26 08:10 | 43.71396 | 40.18822 | 21221 ft | 319 kts | 246° |
| 2026-04-26 08:10 | 43.70477 | 40.16025 | 20781 ft | 317 kts | 245° |
| 2026-04-26 08:10 | 43.69430 | 40.13411 | 20352 ft | 315 kts | 237° |
| 2026-04-26 08:10 | 43.67982 | 40.11141 | 20068 ft | 311 kts | 223° |
| 2026-04-26 08:11 | 43.66243 | 40.09428 | 20056 ft | 306 kts | 214° |
| 2026-04-26 08:11 | 43.64374 | 40.08031 | 20057 ft | 311 kts | 210° |
| 2026-04-26 08:11 | 43.62374 | 40.06729 | 20056 ft | 322 kts | 208° |
| 2026-04-26 08:11 | 43.60299 | 40.05441 | 20052 ft | 329 kts | 207° |
| 2026-04-26 08:12 | 43.58219 | 40.04163 | 19874 ft | 327 kts | 207° |
| 2026-04-26 08:12 | 43.56165 | 40.02898 | 19426 ft | 326 kts | 207° |
| 2026-04-26 08:12 | 43.54111 | 40.01625 | 18974 ft | 324 kts | 208° |
| 2026-04-26 08:12 | 43.52060 | 40.00346 | 18539 ft | 322 kts | 207° |
| 2026-04-26 08:13 | 43.50022 | 39.99074 | 18067 ft | 320 kts | 207° |
| 2026-04-26 08:13 | 43.48017 | 39.97822 | 17623 ft | 318 kts | 207° |
| 2026-04-26 08:13 | 43.46005 | 39.96567 | 17161 ft | 318 kts | 207° |
| 2026-04-26 08:13 | 43.43965 | 39.95413 | 16664 ft | 319 kts | 203° |
| 2026-04-26 08:14 | 43.41858 | 39.94427 | 16217 ft | 318 kts | 201° |
| 2026-04-26 08:14 | 43.39749 | 39.93518 | 15783 ft | 316 kts | 200° |
| 2026-04-26 08:14 | 43.37676 | 39.92625 | 15362 ft | 314 kts | 200° |
| 2026-04-26 08:14 | 43.35587 | 39.91707 | 14923 ft | 312 kts | 201° |
| 2026-04-26 08:15 | 43.33551 | 39.90794 | 14536 ft | 310 kts | 201° |
| 2026-04-26 08:15 | 43.31503 | 39.89865 | 14088 ft | 309 kts | 201° |
| 2026-04-26 08:15 | 43.29463 | 39.88937 | 13652 ft | 307 kts | 201° |
| 2026-04-26 08:15 | 43.27458 | 39.88026 | 13295 ft | 305 kts | 201° |
| 2026-04-26 08:16 | 43.25441 | 39.87110 | 12858 ft | 305 kts | 201° |
| 2026-04-26 08:16 | 43.23430 | 39.86196 | 12429 ft | 304 kts | 201° |
| 2026-04-26 08:16 | 43.21428 | 39.85289 | 12012 ft | 302 kts | 201° |
| 2026-04-26 08:16 | 43.19462 | 39.84399 | 11586 ft | 300 kts | 200° |
| 2026-04-26 08:17 | 43.17493 | 39.83509 | 11211 ft | 298 kts | 200° |
| 2026-04-26 08:17 | 43.15527 | 39.82619 | 10821 ft | 297 kts | 200° |
| 2026-04-26 08:17 | 43.13566 | 39.81731 | 10391 ft | 297 kts | 200° |
| 2026-04-26 08:17 | 43.11602 | 39.80844 | 9973 ft | 295 kts | 200° |
| 2026-04-26 08:18 | 43.09675 | 39.79975 | 9538 ft | 293 kts | 200° |
| 2026-04-26 08:18 | 43.07784 | 39.79028 | 9313 ft | 283 kts | 206° |
| 2026-04-26 08:18 | 43.06167 | 39.77628 | 9253 ft | 270 kts | 226° |
| 2026-04-26 08:18 | 43.05220 | 39.75500 | 9080 ft | 263 kts | 253° |
| 2026-04-26 08:19 | 43.05054 | 39.73082 | 8834 ft | 257 kts | 273° |
| 2026-04-26 08:19 | 43.05462 | 39.70760 | 8567 ft | 249 kts | 295° |
| 2026-04-26 08:19 | 43.06648 | 39.69111 | 8165 ft | 249 kts | 332° |
| 2026-04-26 08:19 | 43.08320 | 39.68751 | 7658 ft | 250 kts | 10° |
| 2026-04-26 08:20 | 43.09961 | 39.69526 | 7165 ft | 248 kts | 25° |
| 2026-04-26 08:20 | 43.11512 | 39.70552 | 6642 ft | 247 kts | 27° |
| 2026-04-26 08:20 | 43.13029 | 39.71610 | 6160 ft | 246 kts | 29° |
| 2026-04-26 08:20 | 43.14539 | 39.72721 | 5663 ft | 244 kts | 31° |
| 2026-04-26 08:21 | 43.16003 | 39.73826 | 5281 ft | 239 kts | 32° |
| 2026-04-26 08:21 | 43.17429 | 39.74907 | 4889 ft | 234 kts | 32° |
| 2026-04-26 08:21 | 43.18833 | 39.75969 | 4518 ft | 230 kts | 32° |
| 2026-04-26 08:21 | 43.20235 | 39.77029 | 4132 ft | 226 kts | 33° |
| 2026-04-26 08:22 | 43.21588 | 39.78050 | 3768 ft | 222 kts | 33° |
| 2026-04-26 08:22 | 43.22913 | 39.79049 | 3507 ft | 216 kts | 33° |
| 2026-04-26 08:22 | 43.24211 | 39.80058 | 3311 ft | 208 kts | 36° |
| 2026-04-26 08:22 | 43.25435 | 39.81021 | 3148 ft | 199 kts | 35° |
| 2026-04-26 08:23 | 43.26619 | 39.81913 | 2984 ft | 191 kts | 34° |
| 2026-04-26 08:23 | 43.27770 | 39.82771 | 2834 ft | 185 kts | 34° |
| 2026-04-26 08:23 | 43.28888 | 39.83605 | 2674 ft | 181 kts | 33° |
| 2026-04-26 08:23 | 43.30011 | 39.84444 | 2527 ft | 183 kts | 32° |
| 2026-04-26 08:24 | 43.31112 | 39.85264 | 2368 ft | 180 kts | 32° |
| 2026-04-26 08:24 | 43.32189 | 39.86064 | 2211 ft | 170 kts | 33° |
| 2026-04-26 08:24 | 43.33202 | 39.86818 | 2125 ft | 160 kts | 33° |
| 2026-04-26 08:24 | 43.34182 | 39.87553 | 2011 ft | 163 kts | 33° |
| 2026-04-26 08:25 | 43.35198 | 39.88311 | 1969 ft | 169 kts | 32° |
| 2026-04-26 08:25 | 43.36249 | 39.89098 | 1740 ft | 176 kts | 31° |
| 2026-04-26 08:25 | 43.37315 | 39.89894 | 1448 ft | 172 kts | 31° |
| 2026-04-26 08:25 | 43.38345 | 39.90643 | 1206 ft | 164 kts | 31° |
| 2026-04-26 08:26 | 43.39341 | 39.91390 | 988 ft | 162 kts | 31° |
| 2026-04-26 08:26 | 43.40325 | 39.92130 | 791 ft | 160 kts | 30° |
| 2026-04-26 08:26 | 43.41301 | 39.92858 | 571 ft | 160 kts | 30° |
| 2026-04-26 08:26 | 43.42274 | 39.93603 | 350 ft | 159 kts | 28° |
| 2026-04-26 08:27 | 43.43237 | 39.94310 | 138 ft | 157 kts | 29° |
| 2026-04-26 08:27 | 43.44122 | 39.94980 | 59 ft | 118 kts | 29° |
| 2026-04-26 08:27 | 43.44624 | 39.95358 | 66 ft | 53 kts | 28° |
| 2026-04-26 08:27 | 43.44870 | 39.95543 | 70 ft | 25 kts | 30° |
| 2026-04-26 08:28 | 43.44967 | 39.95576 | 71 ft | 12 kts | 336° |
| 2026-04-26 08:28 | 43.45027 | 39.95536 | 71 ft | 9 kts | 333° |
| 2026-04-26 08:28 | 43.45075 | 39.95490 | 71 ft | 7 kts | 306° |
| 2026-04-26 08:28 | 43.45093 | 39.95426 | 70 ft | 7 kts | 283° |
| 2026-04-26 08:29 | 43.45091 | 39.95354 | 69 ft | 9 kts | 252° |
| 2026-04-26 08:29 | 43.45057 | 39.95253 | 68 ft | 14 kts | 244° |
| 2026-04-26 08:29 | 43.45011 | 39.95125 | 65 ft | 15 kts | 244° |
| 2026-04-26 08:29 | 43.44949 | 39.94997 | 64 ft | 18 kts | 244° |
| 2026-04-26 08:30 | 43.44891 | 39.94827 | 62 ft | 19 kts | 245° |
| 2026-04-26 08:30 | 43.44833 | 39.94661 | 60 ft | 19 kts | 244° |
| 2026-04-26 08:30 | 43.44783 | 39.94511 | 59 ft | 13 kts | 245° |
| 2026-04-26 08:30 | 43.44747 | 39.94407 | 58 ft | 11 kts | 245° |
| 2026-04-26 08:31 | 43.44718 | 39.94320 | 57 ft | 5 kts | 245° |
| 2026-04-26 08:31 | 43.44723 | 39.94284 | 57 ft | 4 kts | 323° |
| 2026-04-26 08:31 | 43.44749 | 39.94265 | 57 ft | 3 kts | 335° |
| 2026-04-26 08:31 | 43.44770 | 39.94251 | 57 ft | 2 kts | 334° |
| 2026-04-26 08:32 | 43.44773 | 39.94249 | 57 ft | 0 kts | 334° |